createdAt,value
2023-04-15T00:00:10.407Z,5.54
2023-04-15T00:02:39.152Z,5.60
2023-04-15T00:05:10.203Z,5.65
2023-04-15T00:07:39.068Z,5.69
2023-04-15T00:10:09.300Z,5.73
2023-04-15T00:12:38.354Z,5.78
2023-04-15T00:15:08.546Z,5.83
2023-04-15T00:17:39.190Z,5.87
2023-04-15T00:20:10.805Z,5.92
2023-04-15T00:22:39.383Z,5.93
2023-04-15T00:25:08.419Z,5.97
2023-04-15T00:27:36.937Z,6.03
2023-04-15T00:30:06.164Z,6.07
2023-04-15T00:32:35.069Z,6.10
2023-04-15T00:35:04.182Z,6.14
2023-04-15T00:37:35.283Z,6.13
2023-04-15T00:40:05.689Z,6.11
2023-04-15T00:42:35.830Z,6.06
2023-04-15T00:45:04.337Z,6.05
2023-04-15T00:47:35.656Z,6.05
2023-04-15T00:50:11.422Z,6.05
2023-04-15T00:52:42.119Z,6.05
2023-04-15T00:55:11.449Z,6.05
2023-04-15T00:57:41.855Z,6.06
2023-04-15T01:00:12.115Z,6.06
2023-04-15T01:02:41.197Z,6.11
2023-04-15T01:05:10.594Z,6.16
2023-04-15T01:07:41.412Z,6.18
2023-04-15T01:10:10.886Z,6.20
2023-04-15T01:12:39.724Z,6.22
2023-04-15T01:15:11.189Z,6.25
2023-04-15T01:17:41.202Z,6.27
2023-04-15T01:20:12.299Z,6.32
2023-04-15T01:22:42.733Z,6.38
2023-04-15T01:25:14.037Z,6.43
2023-04-15T01:27:44.218Z,6.45
2023-04-15T01:30:13.229Z,6.47
2023-04-15T01:32:42.731Z,6.51
2023-04-15T01:35:11.621Z,6.56
2023-04-15T01:37:40.673Z,6.61
2023-04-15T01:40:10.591Z,6.66
2023-04-15T01:42:39.614Z,6.70
2023-04-15T01:45:12.527Z,6.73
2023-04-15T01:47:44.038Z,6.81
2023-04-15T01:50:14.032Z,6.90
2023-04-15T01:52:43.468Z,6.99
2023-04-15T01:55:12.598Z,7.04
2023-04-15T01:57:41.821Z,7.11
2023-04-15T02:00:13.366Z,7.16
2023-04-15T02:02:44.946Z,7.22
2023-04-15T02:05:14.771Z,7.26
2023-04-15T02:07:46.780Z,7.29
2023-04-15T02:10:16.821Z,7.31
2023-04-15T02:12:45.883Z,7.33
2023-04-15T02:15:16.501Z,7.35
2023-04-15T02:17:46.183Z,7.33
2023-04-15T02:20:15.435Z,7.31
2023-04-15T02:22:43.847Z,7.30
2023-04-15T02:25:12.316Z,7.29
2023-04-15T02:27:41.153Z,7.27
2023-04-15T02:30:10.257Z,7.28
2023-04-15T02:32:43.866Z,7.30
2023-04-15T02:35:12.705Z,7.31
2023-04-15T02:37:45.959Z,7.32
2023-04-15T02:40:15.268Z,7.32
2023-04-15T02:42:44.432Z,7.35
2023-04-15T02:45:13.470Z,7.37
2023-04-15T02:47:44.113Z,7.37
2023-04-15T02:50:15.241Z,7.38
2023-04-15T02:52:44.853Z,7.38
2023-04-15T02:55:13.605Z,7.37
2023-04-15T02:57:42.055Z,7.35
2023-04-15T03:00:12.106Z,7.36
2023-04-15T03:02:42.252Z,7.35
2023-04-15T03:05:15.644Z,7.36
2023-04-15T03:07:44.664Z,7.36
2023-04-15T03:10:13.089Z,7.37
2023-04-15T03:12:41.897Z,7.37
2023-04-15T03:15:11.873Z,7.34
2023-04-15T03:17:40.806Z,7.34
2023-04-15T03:20:10.583Z,7.34
2023-04-15T03:22:40.961Z,7.32
2023-04-15T03:25:10.450Z,7.31
2023-04-15T03:27:39.833Z,7.28
2023-04-15T03:30:10.174Z,7.27
2023-04-15T03:32:39.636Z,7.27
2023-04-15T03:35:08.594Z,7.24
2023-04-15T03:37:37.043Z,7.21
2023-04-15T03:40:09.829Z,7.15
2023-04-15T03:42:38.773Z,7.08
2023-04-15T03:45:08.846Z,7.04
2023-04-15T03:47:37.452Z,6.97
2023-04-15T03:50:07.444Z,6.90
2023-04-15T03:52:35.894Z,6.83
2023-04-15T03:55:04.191Z,6.78
2023-04-15T03:57:38.114Z,6.72
2023-04-15T04:00:08.004Z,6.64
2023-04-15T04:02:36.941Z,6.59
2023-04-15T04:05:06.400Z,6.56
2023-04-15T04:07:34.742Z,6.53
2023-04-15T04:10:04.992Z,6.48
2023-04-15T04:12:35.168Z,6.41
2023-04-15T04:15:03.600Z,6.35
2023-04-15T04:17:32.684Z,6.29
2023-04-15T04:20:01.719Z,6.22
2023-04-15T04:22:30.734Z,6.21
2023-04-15T04:24:59.629Z,6.22
2023-04-15T04:27:28.588Z,6.22
2023-04-15T04:30:03.377Z,6.19
2023-04-15T04:32:32.907Z,6.17
2023-04-15T04:35:01.588Z,6.13
2023-04-15T04:37:30.397Z,6.11
2023-04-15T04:39:58.766Z,6.08
2023-04-15T04:42:27.170Z,6.10
2023-04-15T04:44:55.980Z,6.15
2023-04-15T04:47:26.588Z,6.19
2023-04-15T04:49:55.908Z,6.23
2023-04-15T04:52:24.580Z,6.26
2023-04-15T04:54:53.288Z,6.31
2023-04-15T04:57:22.789Z,6.32
2023-04-15T04:59:51.155Z,6.32
2023-04-15T05:02:20.041Z,6.32
2023-04-15T05:04:50.194Z,6.35
2023-04-15T05:07:21.054Z,6.40
2023-04-15T05:09:49.723Z,6.45
2023-04-15T05:12:18.595Z,6.50
2023-04-15T05:14:47.200Z,6.56
2023-04-15T05:17:16.990Z,6.60
2023-04-15T05:19:46.037Z,6.64
2023-04-15T05:22:16.407Z,6.66
2023-04-15T05:24:45.416Z,6.70
2023-04-15T05:27:13.792Z,6.80
2023-04-15T05:29:42.627Z,6.91
2023-04-15T05:32:12.181Z,7.00
2023-04-15T05:34:41.069Z,7.06
2023-04-15T05:37:09.747Z,7.08
2023-04-15T05:39:39.806Z,7.15
2023-04-15T05:42:08.726Z,7.19
2023-04-15T05:44:37.487Z,7.22
2023-04-15T05:47:08.044Z,7.24
2023-04-15T05:49:37.824Z,7.25
2023-04-15T05:52:06.486Z,7.28
2023-04-15T05:54:38.977Z,7.33
2023-04-15T05:57:09.579Z,7.39
2023-04-15T05:59:38.985Z,7.43
2023-04-15T06:02:07.981Z,7.50
2023-04-15T06:04:37.082Z,7.56
2023-04-15T06:07:06.167Z,7.63
2023-04-15T06:09:35.089Z,7.75
2023-04-15T06:12:04.459Z,7.89
2023-04-15T06:14:34.539Z,8.07
2023-04-15T06:17:03.117Z,8.19
2023-04-15T06:19:32.004Z,8.31
2023-04-15T06:22:00.963Z,8.48
2023-04-15T06:24:30.028Z,8.62
2023-04-15T06:26:58.395Z,8.66
2023-04-15T06:29:27.127Z,8.73
2023-04-15T06:31:57.716Z,8.76
2023-04-15T06:34:26.609Z,8.82
2023-04-15T06:36:55.685Z,8.91
2023-04-15T06:39:24.198Z,9.09
2023-04-15T06:41:53.180Z,9.25
2023-04-15T06:44:24.795Z,9.47
2023-04-15T06:46:53.552Z,9.65
2023-04-15T06:49:23.795Z,9.75
2023-04-15T06:51:53.305Z,9.87
2023-04-15T06:54:22.136Z,9.98
2023-04-15T06:56:51.759Z,9.82
2023-04-15T06:59:23.616Z,9.76
2023-04-15T07:01:52.375Z,9.75
2023-04-15T07:04:23.093Z,9.76
2023-04-15T07:06:51.864Z,9.74
2023-04-15T07:09:20.898Z,9.78
2023-04-15T07:11:49.646Z,9.91
2023-04-15T07:14:19.051Z,10.01
2023-04-15T07:16:47.635Z,10.09
2023-04-15T07:19:16.487Z,10.25
2023-04-15T07:21:46.723Z,10.49
2023-04-15T07:24:18.219Z,10.42
2023-04-15T07:26:47.282Z,10.38
2023-04-15T07:29:16.665Z,10.31
2023-04-15T07:31:45.486Z,10.30
2023-04-15T07:34:14.649Z,10.24
2023-04-15T07:36:43.567Z,10.22
2023-04-15T07:39:13.570Z,10.29
2023-04-15T07:41:42.264Z,10.51
2023-04-15T07:44:11.814Z,10.50
2023-04-15T07:46:41.987Z,10.56
2023-04-15T07:49:10.918Z,10.57
2023-04-15T07:51:39.700Z,10.64
2023-04-15T07:54:09.022Z,10.66
2023-04-15T07:56:39.744Z,10.68
2023-04-15T07:59:09.604Z,10.88
2023-04-15T08:01:39.117Z,11.04
2023-04-15T08:04:08.424Z,11.19
2023-04-15T08:06:39.944Z,11.42
2023-04-15T08:09:08.768Z,11.59
2023-04-15T08:11:39.568Z,11.71
2023-04-15T08:14:12.062Z,11.74
2023-04-15T08:16:41.013Z,11.74
2023-04-15T08:19:10.007Z,11.63
2023-04-15T08:21:42.123Z,11.52
2023-04-15T08:24:11.665Z,11.43
2023-04-15T08:26:42.099Z,11.52
2023-04-15T08:29:10.596Z,11.68
2023-04-15T08:31:39.336Z,11.83
2023-04-15T08:34:08.525Z,11.85
2023-04-15T08:36:37.427Z,12.00
2023-04-15T08:39:05.961Z,12.03
2023-04-15T08:41:48.005Z,12.03
2023-04-15T08:44:20.308Z,12.05
2023-04-15T08:46:50.129Z,11.89
2023-04-15T08:49:20.844Z,11.72
2023-04-15T08:51:49.760Z,11.64
2023-04-15T08:54:20.055Z,11.62
2023-04-15T08:56:49.601Z,11.65
2023-04-15T08:59:21.394Z,11.65
2023-04-15T09:01:51.529Z,11.70
2023-04-15T09:04:20.736Z,11.79
2023-04-15T09:06:49.701Z,11.95
2023-04-15T09:09:18.612Z,12.20
2023-04-15T09:11:47.034Z,12.30
2023-04-15T09:14:15.825Z,12.36
2023-04-15T09:17:02.622Z,12.43
2023-04-15T09:19:33.553Z,12.62
2023-04-15T09:22:02.115Z,12.83
2023-04-15T09:24:39.265Z,12.98
2023-04-15T09:27:08.914Z,13.09
2023-04-15T09:29:37.576Z,13.00
2023-04-15T09:32:14.716Z,12.97
2023-04-15T09:34:43.742Z,12.96
2023-04-15T09:37:24.586Z,12.98
2023-04-15T09:40:00.083Z,12.96
2023-04-15T09:42:29.052Z,13.05
2023-04-15T09:44:57.996Z,13.25
2023-04-15T09:47:32.485Z,13.27
2023-04-15T09:50:02.900Z,13.35
2023-04-15T09:52:32.887Z,13.40
2023-04-15T09:55:02.735Z,13.39
2023-04-15T09:57:36.662Z,13.29
2023-04-15T10:00:06.632Z,13.11
2023-04-15T10:02:37.265Z,12.90
2023-04-15T10:05:07.311Z,12.67
2023-04-15T10:07:36.221Z,12.37
2023-04-15T10:10:05.431Z,11.91
2023-04-15T10:12:34.967Z,11.41
2023-04-15T10:15:07.227Z,10.95
2023-04-15T10:17:38.094Z,10.53
2023-04-15T10:20:09.455Z,10.19
2023-04-15T10:22:39.364Z,10.04
2023-04-15T10:25:09.527Z,9.98
2023-04-15T10:27:38.079Z,10.05
2023-04-15T10:30:09.202Z,10.06
2023-04-15T10:32:40.131Z,10.02
2023-04-15T10:35:10.137Z,10.06
2023-04-15T10:37:40.468Z,10.15
2023-04-15T10:40:31.490Z,10.15
2023-04-15T10:43:04.897Z,10.06
2023-04-15T10:45:36.845Z,9.95
2023-04-15T10:48:10.166Z,9.90
2023-04-15T10:50:39.558Z,9.85
2023-04-15T10:53:12.159Z,9.82
2023-04-15T10:55:40.609Z,9.78
2023-04-15T10:58:11.549Z,9.76
2023-04-15T11:00:40.654Z,9.71
2023-04-15T11:03:14.700Z,9.68
2023-04-15T11:05:54.143Z,9.73
2023-04-15T11:08:56.393Z,9.91
2023-04-15T11:11:25.463Z,10.15
2023-04-15T11:13:54.430Z,10.29
2023-04-15T11:16:23.105Z,10.43
2023-04-15T11:18:58.771Z,10.54
2023-04-15T11:21:28.301Z,10.58
2023-04-15T11:24:00.760Z,10.56
2023-04-15T11:26:32.332Z,10.48
2023-04-15T11:29:01.907Z,10.33
2023-04-15T11:31:31.292Z,10.51
2023-04-15T11:34:02.613Z,10.88
2023-04-15T11:36:33.228Z,11.19
2023-04-15T11:39:02.649Z,11.34
2023-04-15T11:41:31.314Z,11.33
2023-04-15T11:44:00.171Z,11.19
2023-04-15T11:46:35.225Z,10.95
2023-04-15T11:49:05.996Z,10.76
2023-04-15T11:51:36.633Z,10.69
2023-04-15T11:54:05.775Z,10.82
2023-04-15T11:56:34.736Z,10.98
2023-04-15T11:59:03.528Z,11.02
2023-04-15T12:01:35.501Z,11.02
2023-04-15T12:04:13.578Z,11.07
2023-04-15T12:06:42.521Z,11.16
2023-04-15T12:09:13.025Z,11.18
2023-04-15T12:11:44.415Z,11.13
2023-04-15T12:14:17.314Z,11.11
2023-04-15T12:16:48.646Z,11.05
2023-04-15T12:19:24.965Z,11.04
2023-04-15T12:21:56.962Z,11.07
2023-04-15T12:24:26.707Z,11.07
2023-04-15T12:26:58.036Z,10.92
2023-04-15T12:29:29.171Z,10.78
2023-04-15T12:31:59.232Z,10.70
2023-04-15T12:34:32.462Z,10.65
2023-04-15T12:37:04.631Z,10.65
2023-04-15T12:39:39.057Z,10.61
2023-04-15T12:42:08.935Z,10.63
2023-04-15T12:44:38.294Z,10.67
2023-04-15T12:47:06.913Z,10.69
2023-04-15T12:49:37.759Z,10.74
2023-04-15T12:52:07.119Z,10.80
2023-04-15T12:54:36.202Z,10.78
2023-04-15T12:57:07.236Z,10.74
2023-04-15T12:59:36.801Z,10.66
2023-04-15T13:02:05.845Z,10.58
2023-04-15T13:04:36.946Z,10.55
2023-04-15T13:07:06.028Z,10.52
2023-04-15T13:09:34.461Z,10.46
2023-04-15T13:12:05.509Z,10.41
2023-04-15T13:14:34.638Z,10.37
2023-04-15T13:17:08.977Z,10.30
2023-04-15T13:19:40.748Z,10.13
2023-04-15T13:22:09.587Z,10.06
2023-04-15T13:24:39.370Z,9.96
2023-04-15T13:27:09.192Z,9.84
2023-04-15T13:29:37.814Z,9.79
2023-04-15T13:32:07.252Z,9.74
2023-04-15T13:34:35.969Z,9.68
2023-04-15T13:37:10.219Z,9.58
2023-04-15T13:39:39.404Z,9.37
2023-04-15T13:42:08.906Z,9.18
2023-04-15T13:44:37.595Z,9.03
2023-04-15T13:47:06.152Z,8.88
2023-04-15T13:49:34.992Z,8.75
2023-04-15T13:52:04.072Z,8.68
2023-04-15T13:54:37.818Z,8.66
2023-04-15T13:57:06.948Z,8.68
2023-04-15T13:59:36.275Z,8.69
2023-04-15T14:02:05.201Z,8.74
2023-04-15T14:04:34.479Z,8.76
2023-04-15T14:07:05.030Z,8.79
2023-04-15T14:09:42.947Z,8.82
2023-04-15T14:12:12.908Z,8.80
2023-04-15T14:14:41.756Z,8.81
2023-04-15T14:17:10.550Z,8.77
2023-04-15T14:19:39.718Z,8.77
2023-04-15T14:22:08.524Z,8.80
2023-04-15T14:24:39.156Z,8.86
2023-04-15T14:27:08.784Z,8.89
2023-04-15T14:29:37.935Z,8.94
2023-04-15T14:32:12.004Z,9.03
2023-04-15T14:34:41.890Z,9.12
2023-04-15T14:37:10.243Z,9.22
2023-04-15T14:39:40.651Z,9.29
2023-04-15T14:42:09.301Z,9.35
2023-04-15T14:44:38.442Z,9.39
2023-04-15T14:47:07.784Z,9.41
2023-04-15T14:49:36.528Z,9.43
2023-04-15T14:52:05.250Z,9.50
2023-04-15T14:54:33.923Z,9.60
2023-04-15T14:57:03.819Z,9.72
2023-04-15T14:59:32.555Z,9.77
2023-04-15T15:02:01.543Z,9.87
2023-04-15T15:04:33.101Z,10.09
2023-04-15T15:07:01.996Z,10.36
2023-04-15T15:09:30.573Z,10.51
2023-04-15T15:12:03.795Z,10.66
2023-04-15T15:14:32.336Z,10.90
2023-04-15T15:17:01.167Z,11.19
2023-04-15T15:19:30.043Z,11.46
2023-04-15T15:21:59.124Z,11.60
2023-04-15T15:24:28.063Z,11.68
2023-04-15T15:26:57.601Z,11.56
2023-04-15T15:29:28.580Z,11.37
2023-04-15T15:31:56.959Z,11.29
2023-04-15T15:34:25.379Z,11.13
2023-04-15T15:36:55.140Z,10.98
2023-04-15T15:39:24.976Z,10.85
2023-04-15T15:41:56.645Z,10.75
2023-04-15T15:44:26.965Z,10.72
2023-04-15T15:46:56.723Z,10.74
2023-04-15T15:49:28.250Z,10.71
2023-04-15T15:51:57.837Z,10.66
2023-04-15T15:54:26.523Z,10.57
2023-04-15T15:56:55.340Z,10.52
2023-04-15T15:59:24.042Z,10.48
2023-04-15T16:01:53.428Z,10.44
2023-04-15T16:04:24.372Z,10.35
2023-04-15T16:06:53.629Z,10.30
2023-04-15T16:09:22.273Z,10.27
2023-04-15T16:11:51.091Z,10.21
2023-04-15T16:14:20.071Z,10.18
2023-04-15T16:16:49.031Z,10.14
2023-04-15T16:19:17.932Z,10.10
2023-04-15T16:21:48.904Z,10.12
2023-04-15T16:24:18.161Z,10.13
2023-04-15T16:26:49.017Z,10.13
2023-04-15T16:29:17.587Z,10.11
2023-04-15T16:31:48.579Z,10.08
2023-04-15T16:34:17.690Z,10.03
2023-04-15T16:36:47.921Z,9.99
2023-04-15T16:39:16.906Z,9.93
2023-04-15T16:41:45.725Z,9.87
2023-04-15T16:44:14.945Z,9.79
2023-04-15T16:46:43.683Z,9.71
2023-04-15T16:49:12.902Z,9.66
2023-04-15T16:51:42.005Z,9.58
2023-04-15T16:54:12.502Z,9.52
2023-04-15T16:56:41.294Z,9.46
2023-04-15T16:59:10.070Z,9.42
2023-04-15T17:01:41.716Z,9.36
2023-04-15T17:04:10.738Z,9.27
2023-04-15T17:06:40.179Z,9.18
2023-04-15T17:09:09.569Z,9.09
2023-04-15T17:11:40.744Z,9.01
2023-04-15T17:14:09.297Z,8.93
2023-04-15T17:16:41.039Z,8.85
2023-04-15T17:19:09.969Z,8.77
2023-04-15T17:21:38.513Z,8.67
2023-04-15T17:24:07.877Z,8.59
2023-04-15T17:26:36.737Z,8.49
2023-04-15T17:29:07.138Z,8.41
2023-04-15T17:31:35.884Z,8.31
2023-04-15T17:34:09.253Z,8.22
2023-04-15T17:36:38.529Z,8.11
2023-04-15T17:39:07.763Z,8.01
2023-04-15T17:41:36.383Z,7.89
2023-04-15T17:44:07.109Z,7.79
2023-04-15T17:46:36.169Z,7.66
2023-04-15T17:49:06.170Z,7.57
2023-04-15T17:51:41.328Z,7.50
2023-04-15T17:54:10.660Z,7.43
2023-04-15T17:56:39.585Z,7.37
2023-04-15T17:59:10.180Z,7.27
2023-04-15T18:01:38.556Z,7.22
2023-04-15T18:04:08.018Z,7.17
2023-04-15T18:06:36.906Z,7.15
2023-04-15T18:09:05.873Z,7.09
2023-04-15T18:11:39.187Z,7.02
2023-04-15T18:14:09.936Z,6.94
2023-04-15T18:16:40.341Z,6.86
2023-04-15T18:19:09.709Z,6.81
2023-04-15T18:21:38.488Z,6.73
2023-04-15T18:24:07.786Z,6.66
2023-04-15T18:26:36.822Z,6.59
2023-04-15T18:29:06.322Z,6.52
2023-04-15T18:31:37.922Z,6.43
2023-04-15T18:34:07.426Z,6.36
2023-04-15T18:36:36.527Z,6.29
2023-04-15T18:39:05.460Z,6.22
2023-04-15T18:41:34.488Z,6.18
2023-04-15T18:44:03.038Z,6.13
2023-04-15T18:46:31.660Z,6.08
2023-04-15T18:49:02.526Z,6.02
2023-04-15T18:51:32.718Z,5.97
2023-04-15T18:54:01.637Z,5.93
2023-04-15T18:56:30.202Z,5.90
2023-04-15T18:59:19.402Z,5.87
2023-04-15T19:01:50.173Z,5.80
2023-04-15T19:04:20.584Z,5.77
2023-04-15T19:06:49.719Z,5.73
2023-04-15T19:09:22.564Z,5.72
2023-04-15T19:11:51.537Z,5.67
2023-04-15T19:14:20.786Z,5.64
2023-04-15T19:16:49.706Z,5.61
2023-04-15T19:19:26.855Z,5.55
2023-04-15T19:22:03.508Z,5.54
2023-04-15T19:24:33.236Z,5.55
2023-04-15T19:27:04.040Z,5.53
2023-04-15T19:29:33.246Z,5.52
2023-04-15T19:32:06.705Z,5.51
2023-04-15T19:34:43.963Z,5.50
2023-04-15T19:37:16.244Z,5.51
2023-04-15T19:39:47.646Z,5.55
2023-04-15T19:42:21.192Z,5.57
2023-04-15T19:44:52.802Z,5.64
2023-04-15T19:47:22.740Z,5.70
2023-04-15T19:49:56.010Z,5.74
2023-04-15T19:52:24.777Z,5.75
2023-04-15T19:54:57.029Z,5.75
2023-04-15T19:57:25.799Z,5.73
2023-04-15T19:59:59.176Z,5.72
2023-04-15T20:02:30.192Z,5.69
2023-04-15T20:05:00.808Z,5.64
2023-04-15T20:07:33.156Z,5.61
2023-04-15T20:10:02.546Z,5.58
2023-04-15T20:12:49.917Z,5.57
2023-04-15T20:15:27.353Z,5.58
2023-04-15T20:17:55.908Z,5.55
2023-04-15T20:20:31.104Z,5.53
2023-04-15T20:23:05.537Z,5.51
2023-04-15T20:25:36.712Z,5.44
2023-04-15T20:28:07.482Z,5.39
2023-04-15T20:30:41.843Z,5.35
2023-04-15T20:33:11.740Z,5.30
2023-04-15T20:35:41.941Z,5.31
2023-04-15T20:38:12.554Z,5.34
2023-04-15T20:40:41.920Z,5.33
2023-04-15T20:43:14.107Z,5.32
2023-04-15T20:45:45.659Z,5.35
2023-04-15T20:48:14.493Z,5.32
2023-04-15T20:50:44.757Z,5.26
2023-04-15T20:53:17.213Z,5.21
2023-04-15T20:55:46.496Z,5.15
2023-04-15T20:58:17.492Z,5.12
2023-04-15T21:00:47.332Z,5.09
2023-04-15T21:03:16.034Z,5.06
2023-04-15T21:05:50.935Z,5.03
2023-04-15T21:08:24.255Z,5.03
2023-04-15T21:10:52.581Z,5.01
2023-04-15T21:13:21.427Z,4.95
2023-04-15T21:15:53.305Z,4.95
2023-04-15T21:18:25.544Z,4.93
2023-04-15T21:21:02.384Z,4.91
2023-04-15T21:23:31.526Z,4.94
2023-04-15T21:26:03.376Z,4.93
2023-04-15T21:28:37.412Z,4.94
2023-04-15T21:31:07.093Z,4.93
2023-04-15T21:33:39.057Z,4.99
2023-04-15T21:36:14.760Z,5.04
2023-04-15T21:38:44.174Z,5.08
2023-04-15T21:41:13.158Z,5.10
2023-04-15T21:43:45.227Z,5.11
2023-04-15T21:46:23.537Z,5.15
2023-04-15T21:48:57.278Z,5.21
2023-04-15T21:51:28.353Z,5.29
2023-04-15T21:53:59.474Z,5.37
2023-04-15T21:56:29.094Z,5.47
2023-04-15T21:58:59.356Z,5.54
2023-04-15T22:01:28.217Z,5.61
2023-04-15T22:04:01.477Z,5.66
2023-04-15T22:06:33.375Z,5.66
2023-04-15T22:09:03.764Z,5.68
2023-04-15T22:11:36.363Z,5.72
2023-04-15T22:14:07.130Z,6.06
2023-04-15T22:16:42.077Z,6.37
2023-04-15T22:19:21.359Z,6.67
2023-04-15T22:21:53.179Z,6.86
2023-04-15T22:24:39.161Z,6.97
2023-04-15T22:27:08.668Z,7.06
2023-04-15T22:29:37.420Z,7.09
2023-04-15T22:32:06.070Z,7.12
2023-04-15T22:34:35.344Z,7.13
2023-04-15T22:37:05.566Z,7.16
2023-04-15T22:39:34.061Z,7.17
2023-04-15T22:42:02.592Z,7.20
2023-04-15T22:44:31.395Z,7.20
2023-04-15T22:47:00.118Z,7.21
2023-04-15T22:49:29.173Z,7.29
2023-04-15T22:51:58.854Z,7.27
2023-04-15T22:54:29.515Z,7.36
2023-04-15T22:56:57.954Z,7.36
2023-04-15T22:59:26.700Z,7.40
2023-04-15T23:01:55.886Z,7.37
2023-04-15T23:04:27.099Z,7.38
2023-04-15T23:06:57.413Z,7.31
2023-04-15T23:09:26.368Z,7.26
2023-04-15T23:11:57.431Z,7.24
2023-04-15T23:14:28.066Z,7.26
2023-04-15T23:16:58.888Z,7.30
2023-04-15T23:19:27.225Z,7.26
2023-04-15T23:21:56.085Z,7.24
2023-04-15T23:24:24.920Z,7.18
2023-04-15T23:26:56.347Z,7.13
2023-04-15T23:29:26.722Z,7.15
2023-04-15T23:31:55.551Z,7.11
2023-04-15T23:34:24.454Z,7.08
2023-04-15T23:36:53.177Z,7.03
2023-04-15T23:39:21.991Z,6.92
2023-04-15T23:41:50.514Z,6.81
2023-04-15T23:44:20.729Z,6.71
2023-04-15T23:46:51.430Z,6.70
2023-04-15T23:49:20.602Z,6.71
2023-04-15T23:51:49.580Z,6.74
2023-04-15T23:54:18.432Z,6.80
2023-04-15T23:56:46.869Z,6.85
2023-04-15T23:59:15.718Z,6.83
